Weather observations for the past three days for
York, York Municipal Airport
Imperial (Metric)
Date Time (cdt) Wind (mph) Vis. (mi.) Weather Sky Cond. Temperature (ºF) Relative Humidity Wind Chill (°F) Heat Index (°F) Pressure Precipitation (in)
Air Dwpt 6 hour altimeter (in) sea level (mb) 1 hr 3 hr 6 hr
Max. Min.
02 22:55 S 16 10.00 Fair CLR 55.4 28.4 36% 29.92 0.0
02 22:35 S 14 10.00 Fair CLR 55.4 30.2 38% 29.93 0.0
02 22:15 S 13 10.00 Fair CLR 57.2 28.4 33% 29.94 0.0
02 21:55 S 14 10.00 Fair CLR 57.2 28.4 33% 29.94 0.0
02 21:35 S 13 10.00 Fair CLR 59 28.4 31% 29.95 0.0
02 21:15 S 10 10.00 Fair CLR 59 30.2 34% 29.95 0.0
02 20:55 S 9 10.00 Fair CLR 59 30.2 34% 29.95 0.0
02 20:35 S 9 10.00 Fair CLR 60.8 30.2 31% 29.95 0.0
02 20:15 S 8 10.00 Fair CLR 62.6 32 32% 29.96 0.0
02 19:55 SW 8 10.00 Fair CLR 64.4 32 30% 29.96 0.0
02 19:35 SW 8 10.00 Fair CLR 68 28.4 23% 29.97 0.0
02 19:15 SW 12 10.00 Fair CLR 68 28.4 23% 29.97 0.0
02 18:55 W 14 10.00 Fair CLR 68 26.6 21% 29.98 0.0
02 18:35 W 14 10.00 Fair CLR 68 26.6 21% 29.98 0.0
02 18:15 SW 14 G 21 10.00 Fair CLR 69.8 26.6 20% 29.99 0.0
02 17:55 SW 10 G 21 10.00 Fair CLR 68 26.6 21% 30 0.0
02 17:35 SW 9 G 20 10.00 Fair CLR 69.8 26.6 20% 30.01 0.0
02 17:15 SW 9 G 17 10.00 Fair CLR 68 24.8 20% 30.01 0.0
02 16:55 W 10 G 21 10.00 Fair CLR 68 26.6 21% 30.02 0.0
02 16:35 W 9 G 18 10.00 Fair CLR 68 26.6 21% 30.03 0.0
02 16:15 SW 14 10.00 Fair CLR 68 26.6 21% 30.04 0.0
02 15:55 W 16 10.00 Fair CLR 68 26.6 21% 30.05 0.0
02 15:35 Vrbl 7 G 16 10.00 Fair CLR 66.2 24.8 21% 30.06 0.0
02 14:55 W 13 G 20 10.00 Fair CLR 66.2 26.6 22% 30.08 0.0
02 14:35 W 9 10.00 Fair CLR 66.2 28.4 24% 30.09 0.0
02 14:15 W 8 G 18 10.00 Fair CLR 64.4 26.6 24% 30.09 0.0
02 13:55 W 8 G 17 10.00 Fair CLR 64.4 28.4 26% 30.1 0.0
02 13:35 Vrbl 6 G 16 10.00 Fair CLR 62.6 26.6 25% 30.11 0.0
02 13:15 W 9 10.00 Fair CLR 62.6 28.4 27% 30.12 0.0
02 12:55 SW 9 G 16 10.00 Fair CLR 60.8 28.4 29% 30.13 0.0
02 12:35 Vrbl 6 G 13 10.00 Fair CLR 60.8 28.4 29% 30.14 0.0
02 12:15 W 8 G 15 10.00 Fair CLR 60.8 28.4 29% 30.15 0.0
02 11:55 W 8 G 14 10.00 Fair CLR 59 30.2 34% 30.16 0.0
02 11:35 W 8 G 14 10.00 Fair CLR 59 30.2 34% 30.16 0.0
02 11:15 W 10 G 16 10.00 Fair CLR 59 30.2 34% 30.17 0.0
02 10:55 W 12 10.00 Fair CLR 57.2 28.4 33% 30.18 0.0
02 10:35 W 10 10.00 Fair CLR 55.4 28.4 36% 30.18 0.0
02 10:15 W 9 10.00 Fair CLR 53.6 28.4 38% 30.18 0.0
02 09:55 SW 9 10.00 Fair CLR 53.6 28.4 38% 30.19 0.0
02 09:35 W 9 10.00 Fair CLR 51.8 28.4 41% 30.19 0.0
02 09:15 W 10 10.00 Fair CLR 50 32 50% 46 30.19 0.0
02 08:55 W 9 10.00 Fair CLR 48.2 32 54% 45 30.19 0.0
02 08:35 W 6 10.00 Fair CLR 44.6 33.8 66% 42 30.19 0.0
02 08:15 W 7 10.00 Fair CLR 42.8 35.6 76% 39 30.18 0.0
02 07:55 W 5 10.00 Fair CLR 39.2 35.6 87% 36 30.18 0.0
02 07:35 W 7 10.00 Fair CLR 35.6 33.8 93% 31 30.18 0.0
02 07:15 W 5 10.00 Fair CLR 33.8 32 93% 30 30.18 0.0
02 06:55 W 6 10.00 Fair CLR 33.8 30.2 87% 29 30.18 0.0
02 06:35 W 6 10.00 Fair CLR 32 30.2 93% 27 30.17 0.0
02 06:15 W 6 10.00 Fair CLR 32 30.2 93% 27 30.17 0.0
02 05:55 W 7 10.00 Fair CLR 32 30.2 93% 26 30.17 0.0
02 05:35 W 7 10.00 Fair CLR 32 30.2 93% 26 30.18 0.0
02 05:15 W 6 10.00 Fair CLR 33.8 30.2 87% 29 30.17 0.0
02 04:55 W 6 10.00 Fair CLR 32 30.2 93% 27 30.17 0.0
02 04:35 W 5 10.00 Fair CLR 32 30.2 93% 28 30.17 0.0
02 04:15 W 6 10.00 Fair CLR 33.8 30.2 87% 29 30.17 0.0
02 03:55 W 5 10.00 Fair CLR 32 30.2 93% 28 30.17 0.0
02 03:35 W 5 10.00 Fair CLR 32 30.2 93% 28 30.17 0.0
02 03:15 W 5 10.00 Fair CLR 33.8 28.4 81% 30 30.17 0.0
02 02:55 W 6 10.00 Fair CLR 32 30.2 93% 27 30.17 0.0
02 02:15 W 3 10.00 Fair CLR 33.8 30.2 87% 30.17 0.0
02 01:55 Calm 10.00 Fair CLR 35.6 30.2 81% 30.17 0.0
02 01:35 Calm 10.00 Fair CLR 39.2 28.4 65% 30.17 0.0
02 01:15 Calm 10.00 Fair CLR 39.2 30.2 70% 30.17 0.0
02 00:55 N 6 10.00 Fair CLR 39.2 30.2 70% 36 30.17 0.0
02 00:35 N 5 10.00 Fair CLR 41 28.4 61% 38 30.16 0.0
02 00:15 N 5 10.00 Fair CLR 41 28.4 61% 38 30.16 0.0
01 23:55 NE 5 10.00 Fair CLR 41 26.6 57% 38 30.16 0.0
01 23:35 Calm 10.00 Fair CLR 42.8 26.6 53% 30.15 0.0
01 23:15 NE 5 10.00 Fair CLR 42.8 26.6 53% 41 30.15 0.0
01 22:55 NE 6 10.00 Fair CLR 42.8 28.4 57% 40 30.15 0.0
01 22:35 NE 6 10.00 Fair CLR 44.6 28.4 53% 42 30.14 0.0
01 22:15 NE 7 10.00 Fair CLR 44.6 26.6 49% 41 30.14 0.0
01 21:55 NE 7 10.00 Fair CLR 42.8 28.4 57% 39 30.13 0.0
01 21:35 NE 8 10.00 Fair CLR 44.6 26.6 49% 41 30.12 0.0
01 21:15 NE 8 10.00 Fair CLR 46.4 28.4 50% 43 30.11 0.0
01 20:55 NE 8 10.00 Fair CLR 48.2 28.4 46% 45 30.11 0.0
01 20:35 NE 9 10.00 Fair CLR 50 26.6 40% 47 30.1 0.0
01 20:15 NE 9 10.00 Fair CLR 51.8 26.6 38% 30.09 0.0
01 19:55 N 13 10.00 Fair CLR 53.6 24.8 33% 30.09 0.0
01 19:35 N 12 10.00 Fair CLR 55.4 24.8 31% 30.08 0.0
01 19:15 N 9 G 18 10.00 Fair CLR 55.4 24.8 31% 30.08 0.0
01 18:55 N 15 G 21 10.00 Fair CLR 57.2 24.8 29% 30.08 0.0
01 18:35 N 20 G 25 10.00 Fair CLR 57.2 24.8 29% 30.07 0.0
01 18:15 N 16 G 22 10.00 Fair CLR 57.2 24.8 29% 30.07 0.0
01 17:55 N 13 G 29 10.00 Fair CLR 59 26.6 29% 30.07 0.0
01 17:35 N 14 G 20 10.00 A Few Clouds FEW080 59 26.6 29% 30.07 0.0
01 17:15 N 9 G 18 10.00 A Few Clouds FEW080 59 26.6 29% 30.08 0.0
01 16:55 N 9 G 21 10.00 Fair CLR 59 28.4 31% 30.07 0.0
01 16:35 N 13 G 24 10.00 Fair CLR 59 28.4 31% 30.08 0.0
01 16:15 N 15 G 26 10.00 Fair CLR 59 30.2 34% 30.08 0.0
01 15:55 N 21 G 28 10.00 Fair and Breezy CLR 59 28.4 31% 30.08 0.0
01 15:35 N 10 G 16 10.00 Fair CLR 59 30.2 34% 30.09 0.0
01 15:15 N 9 G 25 10.00 Fair CLR 59 30.2 34% 30.09 0.0
01 14:55 N 10 G 18 10.00 A Few Clouds FEW085 57.2 30.2 36% 30.1 0.0
01 14:35 NW 13 G 20 10.00 Partly Cloudy SCT085 59 32 36% 30.1 0.0
01 14:15 N 13 G 23 10.00 A Few Clouds FEW090 57.2 32 39% 30.1 0.0
01 13:55 N 15 G 22 10.00 Partly Cloudy SCT090 57.2 32 39% 30.1 0.0
01 13:35 N 12 G 23 10.00 A Few Clouds FEW090 55.4 32 41% 30.11 0.0
01 13:15 N 10 G 18 10.00 A Few Clouds FEW120 57.2 33.8 41% 30.11 0.0
01 12:55 N 9 G 24 10.00 A Few Clouds FEW090 55.4 32 41% 30.11 0.0
01 12:35 N 13 G 22 10.00 A Few Clouds FEW090 55.4 32 41% 30.12 0.0
01 12:15 N 14 G 25 10.00 Fair CLR 55.4 32 41% 30.12 0.0
01 11:55 N 16 G 22 10.00 Fair CLR 53.6 32 44% 30.12 0.0
01 11:35 N 17 G 23 10.00 Fair CLR 53.6 32 44% 30.12 0.0
01 11:15 N 17 10.00 Fair CLR 53.6 32 44% 30.12 0.0
01 10:55 N 17 10.00 Fair CLR 51.8 33.8 50% 30.11 0.0
01 10:35 N 16 G 25 10.00 Fair CLR 51.8 35.6 54% 30.11 0.0
01 10:15 N 20 10.00 Fair CLR 50 33.8 54% 44 30.11 0.0
01 09:55 N 17 G 26 10.00 Fair CLR 50 35.6 58% 45 30.11 0.0
01 09:35 N 16 G 24 10.00 Fair CLR 48.2 35.6 62% 43 30.11 0.0
01 09:15 N 10 G 22 10.00 Fair CLR 46.4 37.4 71% 42 30.11 0.0
01 08:55 N 10 10.00 Fair CLR 46.4 37.4 71% 42 30.11 0.0
01 08:35 N 9 G 15 10.00 Fair CLR 44.6 37.4 76% 40 30.11 0.0
01 08:15 NW 9 10.00 Fair CLR 42.8 35.6 76% 38 30.11 0.0
01 07:55 NW 10 10.00 Fair CLR 41 35.6 81% 35 30.1 0.0
01 07:35 NW 10 10.00 Fair CLR 39.2 35.6 87% 33 30.1 0.0
01 07:15 NW 12 10.00 Fair CLR 37.4 35.6 93% 30 30.09 0.0
01 06:55 NW 12 10.00 Fair CLR 37.4 33.8 87% 30 30.09 0.0
01 06:35 NW 12 10.00 A Few Clouds FEW080 37.4 35.6 93% 30 30.09 0.0
01 06:15 NW 12 10.00 Mostly Cloudy BKN080 BKN085 35.6 35.6 100% 28 30.09 0.0
01 05:55 NW 10 10.00 Overcast SCT075 OVC085 35.6 35.6 100% 29 30.09 0.0
01 05:35 W 9 10.00 Partly Cloudy SCT075 SCT085 35.6 35.6 100% 29 30.08 0.0
01 05:15 W 8 10.00 Fair CLR 35.6 35.6 100% 30 30.08 0.0
01 04:55 W 10 10.00 A Few Clouds FEW080 35.6 35.6 100% 29 30.08 0.0
01 04:35 SW 9 10.00 Mostly Cloudy BKN085 35.6 33.8 93% 29 30.08 0.0
01 04:15 SW 6 10.00 Mostly Cloudy FEW075 BKN090 35.6 33.8 93% 31 30.08 0.0
01 03:55 SW 8 10.00 A Few Clouds FEW070 FEW080 37.4 33.8 87% 32 30.08 0.0
01 03:35 SW 8 10.00 Fair CLR 37.4 33.8 87% 32 30.08 0.0
01 03:15 SW 8 10.00 Fair CLR 37.4 33.8 87% 32 30.08 0.0
01 02:55 SW 9 10.00 Fair CLR 37.4 33.8 87% 31 30.09 0.0
01 02:35 SW 8 10.00 Fair CLR 37.4 35.6 93% 32 30.1 0.0
01 01:55 SW 9 10.00 Fair CLR 37.4 33.8 87% 31 30.1 0.0
01 01:35 SW 8 10.00 Fair CLR 37.4 35.6 93% 32 30.1 0.0
01 01:15 SW 7 10.00 Fair CLR 37.4 35.6 93% 33 30.11 0.0
01 00:55 S 5 10.00 Fair CLR 35.6 35.6 100% 32 30.11 0.0
01 00:35 S 7 10.00 Fair CLR 37.4 35.6 93% 33 30.11 0.0
30 23:55 S 6 10.00 Fair CLR 39.2 35.6 87% 36 30.11 0.0
30 23:35 S 5 10.00 Fair CLR 39.2 35.6 87% 36 30.12 0.0
30 23:15 SW 3 10.00 Fair CLR 42.8 33.8 71% 30.12 0.0
30 22:55 Calm 10.00 Fair CLR 44.6 33.8 66% 30.12 0.0
30 22:35 Calm 10.00 Fair CLR 42.8 35.6 76% 30.13 0.0
30 22:15 Calm 10.00 Fair CLR 44.6 35.6 71% 30.13 0.0
30 21:55 NW 3 10.00 Fair CLR 44.6 33.8 66% 30.12 0.0
30 21:35 Calm 10.00 Fair CLR 44.6 35.6 71% 30.12 0.0
30 20:55 N 3 10.00 Fair CLR 46.4 35.6 66% 30.11 0.0
30 20:35 Calm 10.00 Fair CLR 48.2 37.4 66% 30.1 0.0
30 20:15 N 6 10.00 Fair CLR 48.2 35.6 62% 46 30.1 0.0
30 19:55 N 7 10.00 A Few Clouds FEW090 50 35.6 58% 48 30.1 0.0
30 19:35 N 13 G 20 10.00 Partly Cloudy SCT090 51.8 33.8 50% 30.09 0.0
30 19:15 N 13 G 20 10.00 Mostly Cloudy SCT080 BKN090 53.6 33.8 47% 30.09 0.0
30 18:55 N 15 10.00 Overcast FEW065 BKN080 OVC090 53.6 33.8 47% 30.09 0.0
30 18:35 N 12 10.00 Overcast FEW065 BKN080 OVC090 51.8 35.6 54% 30.09 0.0
30 18:15 N 14 10.00 Overcast FEW060 FEW075 OVC085 53.6 35.6 51% 30.09 0.0
30 17:55 N 9 G 20 10.00 Mostly Cloudy FEW050 BKN085 53.6 35.6 51% 30.09 0.0
30 17:35 N 12 G 20 10.00 Mostly Cloudy SCT055 BKN085 53.6 35.6 51% 30.08 0.0
30 17:15 N 15 G 24 10.00 Overcast SCT049 BKN055 OVC070 53.6 37.4 54% 30.09 0.0
30 16:55 N 14 G 20 10.00 Overcast FEW049 BKN060 OVC085 55.4 37.4 51% 30.08 0.0
30 16:35 N 13 G 21 10.00 Overcast SCT055 BKN065 OVC085 55.4 35.6 47% 30.08 0.0
30 16:15 NE 14 G 23 10.00 Mostly Cloudy FEW047 SCT055 BKN065 55.4 37.4 51% 30.09 0.0
30 15:55 N 10 G 17 10.00 Mostly Cloudy FEW045 SCT060 BKN075 57.2 37.4 48% 30.09 0.0
30 15:35 N 14 10.00 Overcast FEW045 BKN065 OVC080 55.4 37.4 51% 30.1 0.0
30 15:15 N 13 G 20 10.00 Overcast FEW046 BKN060 OVC070 53.6 37.4 54% 30.1 0.0
30 14:55 N 15 G 24 10.00 Mostly Cloudy SCT046 BKN060 BKN070 55.4 37.4 51% 30.1 0.0
30 14:35 N 15 G 23 10.00 Mostly Cloudy FEW047 SCT060 BKN090 55.4 37.4 51% 30.1 0.0
30 14:15 N 15 G 25 10.00 Mostly Cloudy BKN060 BKN065 BKN090 57.2 35.6 44% 30.1 0.0
30 13:55 N 14 G 23 10.00 Mostly Cloudy BKN055 BKN065 BKN075 55.4 35.6 47% 30.1 0.0
30 13:35 N 9 G 21 10.00 Mostly Cloudy BKN060 BKN075 55.4 33.8 44% 30.1 0.0
30 13:15 N 14 G 22 10.00 Mostly Cloudy BKN050 BKN065 57.2 35.6 44% 30.11 0.0
30 12:55 N 12 G 22 10.00 A Few Clouds FEW055 59 35.6 42% 30.11 0.0
30 12:35 NE 15 G 25 10.00 Fair CLR 66.2 37.4 35% 30.11 0.0
30 12:15 N 16 G 25 10.00 A Few Clouds FEW043 55.4 35.6 47% 30.12 0.0
30 11:55 N 16 10.00 Fair CLR 55.4 39.2 55% 30.12 0.0
30 11:35 N 16 G 23 10.00 Fair CLR 55.4 41 59% 30.13 0.0
30 11:15 N 13 G 24 10.00 Fair CLR 53.6 42.8 67% 30.13 0.0
30 10:55 N 17 G 24 10.00 Fair CLR 51.8 42.8 72% 30.13 0.0
30 10:35 N 16 G 23 10.00 Partly Cloudy SCT017 SCT021 51.8 44.6 77% 30.12 0.0
30 10:15 N 12 G 18 10.00 Mostly Cloudy BKN016 50 46.4 88% 46 30.13 0.0
30 09:35 N 12 G 21 10.00 A Few Clouds FEW013 48.2 46.4 94% 44 30.12 0.0
30 09:15 N 15 10.00 A Few Clouds FEW013 48.2 44.6 87% 43 30.12 0.0
30 08:55 N 12 10.00 A Few Clouds FEW013 46.4 44.6 93% 42 30.11 0.0
30 08:35 NW 14 10.00 Fair CLR 46.4 44.6 93% 41 30.1 0.0
30 08:15 NW 12 G 17 10.00 Fair CLR 46.4 42.8 87% 42 30.09 0.0
30 07:55 NW 14 10.00 Fair CLR 46.4 42.8 87% 41 30.08 0.0
30 07:35 NW 12 10.00 Fair CLR 44.6 42.8 93% 39 30.07 0.0
30 07:15 NW 10 10.00 Fair CLR 44.6 42.8 93% 40 30.07 0.0
30 06:55 NW 10 10.00 Fair CLR 44.6 42.8 93% 40 30.07 0.0
30 06:35 NW 12 10.00 Fair CLR 44.6 42.8 93% 39 30.06 0.0
30 06:15 NW 10 10.00 Fair CLR 44.6 42.8 93% 40 30.06 0.0
30 05:55 NW 13 10.00 Fair CLR 44.6 42.8 93% 39 30.06 0.0
30 05:35 NW 10 10.00 Fair CLR 44.6 44.6 100% 40 30.06 0.0
30 05:15 NW 12 10.00 Fair CLR 44.6 44.6 100% 39 30.05 0.0
30 04:55 NW 13 10.00 Fair CLR 44.6 44.6 100% 39 30.06 0.0
30 04:35 W 12 10.00 Fair CLR 46.4 46.4 100% 42 30.06 0.0
30 04:15 W 12 10.00 Fair CLR 46.4 46.4 100% 42 30.05 0.0
30 03:55 W 7 10.00 A Few Clouds FEW085 46.4 46.4 100% 43 30.05 0.0
30 03:35 W 8 10.00 Mostly Cloudy FEW070 FEW080 BKN090 46.4 46.4 100% 43 30.04 0.0
30 03:15 SW 8 10.00 Overcast BKN075 OVC095 48.2 46.4 94% 45 30.04 0.0
30 02:55 SW 9 10.00 Overcast FEW075 OVC095 48.2 48.2 100% 45 30.04 0.0
30 02:35 SW 8 10.00 Mostly Cloudy FEW080 BKN100 46.4 46.4 100% 43 30.06 0.0
30 02:15 SW 8 10.00 Fair CLR 48.2 48.2 100% 45 30.06 0.0
30 01:55 SW 8 10.00 A Few Clouds FEW100 48.2 48.2 100% 45 30.06 0.0
30 01:35 SW 6 10.00 Mostly Cloudy BKN100 46.4 46.4 100% 44 30.07 0.0
30 01:15 SW 6 10.00 Overcast FEW075 OVC100 50 48.2 94% 48 30.07 0.0
30 00:55 SW 5 10.00 Overcast BKN075 OVC090 50 50 100% 49 30.07 0.0
30 00:35 S 6 10.00 Overcast FEW065 OVC085 50 50 100% 48 30.07 0.0
30 00:15 S 6 10.00 Overcast BKN065 OVC080 50 50 100% 48 30.08 0.0
29 23:55 Calm 10.00 Overcast SCT050 SCT060 OVC070 50 50 100% 30.08 0.0 0.01
29 23:35 NW 3 G 13 6.00 Light Rain Fog/Mist FEW026 SCT031 BKN050 51.8 50 94% 30.09 0.0
Date Time (cdt) Wind (mph) Vis. (mi.) Weather Sky Cond. Air Dwpt Max. Min. Relative Humidity Wind Chill (°F) Heat Index (°F) altimeter (in) sea level (mb) 1 hr 3 hr 6 hr
6 hour
Temperature (ºF) Pressure Precipitation (in)